sensor_id;sensor_type;location;lat;lon;timestamp;P1;durP1;ratioP1;P2;durP2;ratioP2
6209;SDS011;3138;52.550;13.148;2023-02-28T00:04:17;13.03;;;9.00;;
6209;SDS011;3138;52.550;13.148;2023-02-28T00:07:02;13.60;;;7.70;;
6209;SDS011;3138;52.550;13.148;2023-02-28T00:09:49;14.70;;;9.00;;
6209;SDS011;3138;52.550;13.148;2023-02-28T00:16:24;14.93;;;7.37;;
6209;SDS011;3138;52.550;13.148;2023-02-28T00:19:07;14.17;;;7.10;;
6209;SDS011;3138;52.550;13.148;2023-02-28T00:21:46;21.00;;;7.60;;
6209;SDS011;3138;52.550;13.148;2023-02-28T00:24:50;16.33;;;7.40;;
6209;SDS011;3138;52.550;13.148;2023-02-28T00:27:20;19.00;;;8.50;;
6209;SDS011;3138;52.550;13.148;2023-02-28T00:31:28;17.80;;;8.60;;
6209;SDS011;3138;52.550;13.148;2023-02-28T00:33:31;15.17;;;7.17;;
6209;SDS011;3138;52.550;13.148;2023-02-28T00:36:16;15.60;;;8.40;;
6209;SDS011;3138;52.550;13.148;2023-02-28T00:38:44;23.47;;;7.50;;
6209;SDS011;3138;52.550;13.148;2023-02-28T00:41:33;20.53;;;8.40;;
6209;SDS011;3138;52.550;13.148;2023-02-28T00:44:31;16.10;;;6.87;;
6209;SDS011;3138;52.550;13.148;2023-02-28T00:47:17;10.00;;;6.30;;
6209;SDS011;3138;52.550;13.148;2023-02-28T00:50:12;15.10;;;7.47;;
6209;SDS011;3138;52.550;13.148;2023-02-28T00:53:08;19.13;;;6.10;;
6209;SDS011;3138;52.550;13.148;2023-02-28T00:55:44;15.70;;;6.57;;
6209;SDS011;3138;52.550;13.148;2023-02-28T00:58:38;14.43;;;7.10;;
6209;SDS011;3138;52.550;13.148;2023-02-28T01:01:17;13.67;;;6.40;;
6209;SDS011;3138;52.550;13.148;2023-02-28T01:04:23;17.90;;;7.23;;
6209;SDS011;3138;52.550;13.148;2023-02-28T01:06:52;13.27;;;6.03;;
6209;SDS011;3138;52.550;13.148;2023-02-28T01:09:19;12.83;;;6.50;;
6209;SDS011;3138;52.550;13.148;2023-02-28T01:14:37;9.20;;;6.17;;
6209;SDS011;3138;52.550;13.148;2023-02-28T01:17:20;9.97;;;5.73;;
6209;SDS011;3138;52.550;13.148;2023-02-28T01:19:56;11.27;;;7.33;;
6209;SDS011;3138;52.550;13.148;2023-02-28T01:22:29;14.90;;;7.77;;
6209;SDS011;3138;52.550;13.148;2023-02-28T01:25:06;12.73;;;7.27;;
6209;SDS011;3138;52.550;13.148;2023-02-28T01:27:40;11.30;;;6.10;;
6209;SDS011;3138;52.550;13.148;2023-02-28T01:30:07;10.40;;;6.27;;
6209;SDS011;3138;52.550;13.148;2023-02-28T01:32:35;10.53;;;6.73;;
6209;SDS011;3138;52.550;13.148;2023-02-28T01:35:06;9.83;;;6.63;;
6209;SDS011;3138;52.550;13.148;2023-02-28T01:40:20;11.60;;;6.53;;
6209;SDS011;3138;52.550;13.148;2023-02-28T01:42:57;14.30;;;6.50;;
6209;SDS011;3138;52.550;13.148;2023-02-28T01:45:31;8.67;;;5.80;;
6209;SDS011;3138;52.550;13.148;2023-02-28T01:48:02;13.00;;;5.20;;
6209;SDS011;3138;52.550;13.148;2023-02-28T01:50:35;13.53;;;6.40;;
6209;SDS011;3138;52.550;13.148;2023-02-28T01:53:17;12.13;;;6.40;;
6209;SDS011;3138;52.550;13.148;2023-02-28T01:56:16;7.63;;;5.53;;
6209;SDS011;3138;52.550;13.148;2023-02-28T01:59:04;9.20;;;5.40;;
6209;SDS011;3138;52.550;13.148;2023-02-28T02:01:40;16.43;;;7.00;;
6209;SDS011;3138;52.550;13.148;2023-02-28T02:04:08;11.80;;;6.10;;
6209;SDS011;3138;52.550;13.148;2023-02-28T02:06:40;11.07;;;6.67;;
6209;SDS011;3138;52.550;13.148;2023-02-28T02:09:10;9.40;;;6.00;;
6209;SDS011;3138;52.550;13.148;2023-02-28T02:12:02;12.63;;;6.43;;
6209;SDS011;3138;52.550;13.148;2023-02-28T02:14:47;9.03;;;5.70;;
6209;SDS011;3138;52.550;13.148;2023-02-28T02:17:43;7.80;;;5.40;;
6209;SDS011;3138;52.550;13.148;2023-02-28T02:27:01;14.53;;;7.50;;
6209;SDS011;3138;52.550;13.148;2023-02-28T02:30:07;8.43;;;6.07;;
6209;SDS011;3138;52.550;13.148;2023-02-28T02:32:47;14.40;;;6.10;;
6209;SDS011;3138;52.550;13.148;2023-02-28T02:35:32;9.33;;;5.37;;
6209;SDS011;3138;52.550;13.148;2023-02-28T02:38:06;13.20;;;5.37;;
6209;SDS011;3138;52.550;13.148;2023-02-28T02:40:38;10.97;;;5.97;;
6209;SDS011;3138;52.550;13.148;2023-02-28T02:43:11;9.87;;;5.47;;
6209;SDS011;3138;52.550;13.148;2023-02-28T02:45:43;10.13;;;6.17;;
6209;SDS011;3138;52.550;13.148;2023-02-28T02:48:16;8.50;;;6.33;;
6209;SDS011;3138;52.550;13.148;2023-02-28T02:50:48;7.07;;;4.80;;
6209;SDS011;3138;52.550;13.148;2023-02-28T02:53:26;12.63;;;7.50;;
6209;SDS011;3138;52.550;13.148;2023-02-28T02:55:57;10.50;;;6.03;;
6209;SDS011;3138;52.550;13.148;2023-02-28T02:58:45;10.27;;;6.83;;
6209;SDS011;3138;52.550;13.148;2023-02-28T03:01:18;12.93;;;6.20;;
6209;SDS011;3138;52.550;13.148;2023-02-28T03:04:00;10.90;;;6.73;;
6209;SDS011;3138;52.550;13.148;2023-02-28T03:06:51;25.87;;;5.93;;
6209;SDS011;3138;52.550;13.148;2023-02-28T03:09:36;13.40;;;6.30;;
6209;SDS011;3138;52.550;13.148;2023-02-28T03:12:04;9.93;;;5.20;;
6209;SDS011;3138;52.550;13.148;2023-02-28T03:14:57;7.77;;;5.53;;
6209;SDS011;3138;52.550;13.148;2023-02-28T03:20:40;10.10;;;5.60;;
6209;SDS011;3138;52.550;13.148;2023-02-28T03:23:30;11.90;;;7.03;;
6209;SDS011;3138;52.550;13.148;2023-02-28T03:26:31;15.23;;;6.20;;
6209;SDS011;3138;52.550;13.148;2023-02-28T03:29:13;8.70;;;6.57;;
6209;SDS011;3138;52.550;13.148;2023-02-28T03:31:54;11.17;;;6.70;;
6209;SDS011;3138;52.550;13.148;2023-02-28T03:34:34;15.47;;;6.67;;
6209;SDS011;3138;52.550;13.148;2023-02-28T03:37:11;10.93;;;6.23;;
6209;SDS011;3138;52.550;13.148;2023-02-28T03:42:58;16.13;;;6.60;;
6209;SDS011;3138;52.550;13.148;2023-02-28T03:45:38;19.27;;;7.40;;
6209;SDS011;3138;52.550;13.148;2023-02-28T03:48:15;16.17;;;6.73;;
6209;SDS011;3138;52.550;13.148;2023-02-28T03:50:47;10.50;;;6.77;;
6209;SDS011;3138;52.550;13.148;2023-02-28T03:53:18;10.93;;;6.23;;
6209;SDS011;3138;52.550;13.148;2023-02-28T03:55:56;11.03;;;6.40;;
6209;SDS011;3138;52.550;13.148;2023-02-28T03:58:35;10.20;;;6.03;;
6209;SDS011;3138;52.550;13.148;2023-02-28T04:01:08;17.33;;;7.17;;
6209;SDS011;3138;52.550;13.148;2023-02-28T04:03:48;14.70;;;6.40;;
6209;SDS011;3138;52.550;13.148;2023-02-28T04:09:44;11.83;;;6.30;;
6209;SDS011;3138;52.550;13.148;2023-02-28T04:12:13;19.40;;;7.50;;
6209;SDS011;3138;52.550;13.148;2023-02-28T04:14:40;16.03;;;7.17;;
6209;SDS011;3138;52.550;13.148;2023-02-28T04:17:07;10.93;;;6.40;;
6209;SDS011;3138;52.550;13.148;2023-02-28T04:19:35;8.80;;;5.73;;
6209;SDS011;3138;52.550;13.148;2023-02-28T04:22:02;12.37;;;6.57;;
6209;SDS011;3138;52.550;13.148;2023-02-28T04:24:29;12.50;;;5.93;;
6209;SDS011;3138;52.550;13.148;2023-02-28T04:27:03;13.60;;;7.23;;
6209;SDS011;3138;52.550;13.148;2023-02-28T04:29:34;20.80;;;7.10;;
6209;SDS011;3138;52.550;13.148;2023-02-28T04:32:10;12.50;;;6.70;;
6209;SDS011;3138;52.550;13.148;2023-02-28T04:34:40;11.70;;;6.80;;
6209;SDS011;3138;52.550;13.148;2023-02-28T04:37:19;9.27;;;7.00;;
6209;SDS011;3138;52.550;13.148;2023-02-28T04:39:56;11.97;;;5.63;;
6209;SDS011;3138;52.550;13.148;2023-02-28T04:42:33;13.20;;;7.33;;
6209;SDS011;3138;52.550;13.148;2023-02-28T04:45:09;17.77;;;7.17;;
6209;SDS011;3138;52.550;13.148;2023-02-28T04:47:41;9.70;;;6.77;;
6209;SDS011;3138;52.550;13.148;2023-02-28T04:50:23;17.73;;;7.40;;
6209;SDS011;3138;52.550;13.148;2023-02-28T04:52:50;12.77;;;7.30;;
6209;SDS011;3138;52.550;13.148;2023-02-28T04:55:17;10.87;;;6.90;;
6209;SDS011;3138;52.550;13.148;2023-02-28T04:57:51;12.60;;;7.80;;
6209;SDS011;3138;52.550;13.148;2023-02-28T05:00:20;14.73;;;7.80;;
6209;SDS011;3138;52.550;13.148;2023-02-28T05:02:55;14.70;;;7.80;;
6209;SDS011;3138;52.550;13.148;2023-02-28T05:05:35;9.33;;;6.37;;
6209;SDS011;3138;52.550;13.148;2023-02-28T05:08:02;9.80;;;6.87;;
6209;SDS011;3138;52.550;13.148;2023-02-28T05:10:30;13.23;;;7.40;;
6209;SDS011;3138;52.550;13.148;2023-02-28T05:13:09;13.13;;;6.47;;
6209;SDS011;3138;52.550;13.148;2023-02-28T05:18:26;8.17;;;5.43;;
6209;SDS011;3138;52.550;13.148;2023-02-28T05:20:53;14.47;;;7.00;;
6209;SDS011;3138;52.550;13.148;2023-02-28T05:23:20;13.30;;;7.67;;
6209;SDS011;3138;52.550;13.148;2023-02-28T05:25:49;13.33;;;7.70;;
6209;SDS011;3138;52.550;13.148;2023-02-28T05:28:16;13.67;;;6.80;;
6209;SDS011;3138;52.550;13.148;2023-02-28T05:30:44;15.77;;;6.90;;
6209;SDS011;3138;52.550;13.148;2023-02-28T05:33:13;8.73;;;6.10;;
6209;SDS011;3138;52.550;13.148;2023-02-28T05:35:40;14.33;;;8.10;;
6209;SDS011;3138;52.550;13.148;2023-02-28T05:38:08;9.37;;;6.20;;
6209;SDS011;3138;52.550;13.148;2023-02-28T05:40:37;18.23;;;6.80;;
6209;SDS011;3138;52.550;13.148;2023-02-28T05:43:04;13.70;;;7.67;;
6209;SDS011;3138;52.550;13.148;2023-02-28T05:45:33;14.83;;;7.20;;
6209;SDS011;3138;52.550;13.148;2023-02-28T05:48:02;15.17;;;7.60;;
6209;SDS011;3138;52.550;13.148;2023-02-28T05:50:30;13.47;;;6.90;;
6209;SDS011;3138;52.550;13.148;2023-02-28T05:53:05;10.03;;;6.70;;
6209;SDS011;3138;52.550;13.148;2023-02-28T05:55:39;22.03;;;7.93;;
6209;SDS011;3138;52.550;13.148;2023-02-28T05:58:34;21.80;;;8.40;;
6209;SDS011;3138;52.550;13.148;2023-02-28T06:01:41;11.23;;;6.13;;
6209;SDS011;3138;52.550;13.148;2023-02-28T06:04:35;18.43;;;7.50;;
6209;SDS011;3138;52.550;13.148;2023-02-28T06:09:52;18.90;;;7.93;;
6209;SDS011;3138;52.550;13.148;2023-02-28T06:12:26;18.33;;;7.43;;
6209;SDS011;3138;52.550;13.148;2023-02-28T06:14:58;12.53;;;7.63;;
6209;SDS011;3138;52.550;13.148;2023-02-28T06:20:27;17.07;;;8.10;;
6209;SDS011;3138;52.550;13.148;2023-02-28T06:26:37;14.17;;;8.20;;
6209;SDS011;3138;52.550;13.148;2023-02-28T06:29:25;12.93;;;7.47;;
6209;SDS011;3138;52.550;13.148;2023-02-28T06:31:55;15.47;;;7.93;;
6209;SDS011;3138;52.550;13.148;2023-02-28T06:34:36;79.77;;;33.77;;
6209;SDS011;3138;52.550;13.148;2023-02-28T06:37:03;47.17;;;21.10;;
6209;SDS011;3138;52.550;13.148;2023-02-28T06:39:31;29.53;;;13.00;;
6209;SDS011;3138;52.550;13.148;2023-02-28T06:41:58;20.53;;;10.50;;
6209;SDS011;3138;52.550;13.148;2023-02-28T06:44:25;14.70;;;7.90;;
6209;SDS011;3138;52.550;13.148;2023-02-28T06:46:52;20.80;;;8.70;;
6209;SDS011;3138;52.550;13.148;2023-02-28T06:49:19;13.03;;;7.70;;
6209;SDS011;3138;52.550;13.148;2023-02-28T06:51:46;31.17;;;9.47;;
6209;SDS011;3138;52.550;13.148;2023-02-28T06:54:12;31.63;;;8.13;;
6209;SDS011;3138;52.550;13.148;2023-02-28T06:56:41;29.60;;;14.60;;
6209;SDS011;3138;52.550;13.148;2023-02-28T06:59:08;48.93;;;18.03;;
6209;SDS011;3138;52.550;13.148;2023-02-28T07:01:35;35.13;;;15.17;;
6209;SDS011;3138;52.550;13.148;2023-02-28T07:04:02;24.63;;;12.63;;
6209;SDS011;3138;52.550;13.148;2023-02-28T07:06:31;28.67;;;12.10;;
6209;SDS011;3138;52.550;13.148;2023-02-28T07:08:59;23.50;;;11.70;;
6209;SDS011;3138;52.550;13.148;2023-02-28T07:11:26;33.87;;;13.13;;
6209;SDS011;3138;52.550;13.148;2023-02-28T07:13:55;22.43;;;12.40;;
6209;SDS011;3138;52.550;13.148;2023-02-28T07:16:23;22.27;;;11.50;;
6209;SDS011;3138;52.550;13.148;2023-02-28T07:18:52;21.73;;;11.00;;
6209;SDS011;3138;52.550;13.148;2023-02-28T07:21:19;25.77;;;12.90;;
6209;SDS011;3138;52.550;13.148;2023-02-28T07:23:46;24.97;;;11.97;;
6209;SDS011;3138;52.550;13.148;2023-02-28T07:26:13;29.73;;;11.77;;
6209;SDS011;3138;52.550;13.148;2023-02-28T07:28:42;24.93;;;11.80;;
6209;SDS011;3138;52.550;13.148;2023-02-28T07:31:10;34.90;;;12.73;;
6209;SDS011;3138;52.550;13.148;2023-02-28T07:33:38;23.50;;;10.90;;
6209;SDS011;3138;52.550;13.148;2023-02-28T07:36:06;25.97;;;13.20;;
6209;SDS011;3138;52.550;13.148;2023-02-28T07:38:39;20.67;;;10.93;;
6209;SDS011;3138;52.550;13.148;2023-02-28T07:41:05;24.63;;;12.93;;
6209;SDS011;3138;52.550;13.148;2023-02-28T07:43:33;30.10;;;14.47;;
6209;SDS011;3138;52.550;13.148;2023-02-28T07:46:01;29.13;;;13.60;;
6209;SDS011;3138;52.550;13.148;2023-02-28T07:48:31;27.70;;;14.20;;
6209;SDS011;3138;52.550;13.148;2023-02-28T07:50:58;27.00;;;13.90;;
6209;SDS011;3138;52.550;13.148;2023-02-28T07:53:26;31.00;;;15.10;;
6209;SDS011;3138;52.550;13.148;2023-02-28T07:55:54;24.30;;;11.37;;
6209;SDS011;3138;52.550;13.148;2023-02-28T07:58:22;28.60;;;13.47;;
6209;SDS011;3138;52.550;13.148;2023-02-28T08:00:49;20.60;;;11.67;;
6209;SDS011;3138;52.550;13.148;2023-02-28T08:03:17;27.43;;;10.80;;
6209;SDS011;3138;52.550;13.148;2023-02-28T08:05:46;21.00;;;11.10;;
6209;SDS011;3138;52.550;13.148;2023-02-28T08:08:13;30.37;;;13.07;;
6209;SDS011;3138;52.550;13.148;2023-02-28T08:10:40;23.43;;;11.40;;
6209;SDS011;3138;52.550;13.148;2023-02-28T08:13:07;20.83;;;9.60;;
6209;SDS011;3138;52.550;13.148;2023-02-28T08:15:35;23.83;;;11.33;;
6209;SDS011;3138;52.550;13.148;2023-02-28T08:18:02;18.47;;;10.30;;
6209;SDS011;3138;52.550;13.148;2023-02-28T08:20:29;21.00;;;11.13;;
6209;SDS011;3138;52.550;13.148;2023-02-28T08:22:58;20.57;;;11.70;;
6209;SDS011;3138;52.550;13.148;2023-02-28T08:25:25;21.57;;;11.60;;
6209;SDS011;3138;52.550;13.148;2023-02-28T08:27:52;17.40;;;10.40;;
6209;SDS011;3138;52.550;13.148;2023-02-28T08:30:19;15.83;;;9.80;;
6209;SDS011;3138;52.550;13.148;2023-02-28T08:32:46;21.33;;;10.80;;
6209;SDS011;3138;52.550;13.148;2023-02-28T08:35:13;29.07;;;9.80;;
6209;SDS011;3138;52.550;13.148;2023-02-28T08:37:40;21.90;;;10.70;;
6209;SDS011;3138;52.550;13.148;2023-02-28T08:40:09;16.00;;;9.03;;
6209;SDS011;3138;52.550;13.148;2023-02-28T08:42:38;19.80;;;10.43;;
6209;SDS011;3138;52.550;13.148;2023-02-28T08:45:06;18.83;;;9.10;;
6209;SDS011;3138;52.550;13.148;2023-02-28T08:47:36;15.77;;;8.00;;
6209;SDS011;3138;52.550;13.148;2023-02-28T08:50:04;15.90;;;7.00;;
6209;SDS011;3138;52.550;13.148;2023-02-28T08:52:31;10.13;;;6.10;;
6209;SDS011;3138;52.550;13.148;2023-02-28T08:54:58;8.50;;;5.03;;
6209;SDS011;3138;52.550;13.148;2023-02-28T08:57:27;10.73;;;6.23;;
6209;SDS011;3138;52.550;13.148;2023-02-28T08:59:54;6.40;;;5.43;;
6209;SDS011;3138;52.550;13.148;2023-02-28T09:02:21;22.00;;;5.27;;
6209;SDS011;3138;52.550;13.148;2023-02-28T09:04:48;11.83;;;5.53;;
6209;SDS011;3138;52.550;13.148;2023-02-28T09:07:15;15.63;;;5.30;;
6209;SDS011;3138;52.550;13.148;2023-02-28T09:09:42;14.67;;;5.83;;
6209;SDS011;3138;52.550;13.148;2023-02-28T09:12:21;9.50;;;5.83;;
6209;SDS011;3138;52.550;13.148;2023-02-28T09:14:51;6.80;;;4.60;;
6209;SDS011;3138;52.550;13.148;2023-02-28T09:17:18;27.53;;;5.97;;
6209;SDS011;3138;52.550;13.148;2023-02-28T09:19:47;18.97;;;6.30;;
6209;SDS011;3138;52.550;13.148;2023-02-28T09:22:17;14.30;;;5.60;;
6209;SDS011;3138;52.550;13.148;2023-02-28T09:24:44;10.27;;;5.40;;
6209;SDS011;3138;52.550;13.148;2023-02-28T09:27:11;8.97;;;4.57;;
6209;SDS011;3138;52.550;13.148;2023-02-28T09:29:39;9.17;;;4.60;;
6209;SDS011;3138;52.550;13.148;2023-02-28T09:32:10;6.73;;;3.00;;
6209;SDS011;3138;52.550;13.148;2023-02-28T09:34:37;3.97;;;2.40;;
6209;SDS011;3138;52.550;13.148;2023-02-28T09:37:04;6.20;;;3.97;;
6209;SDS011;3138;52.550;13.148;2023-02-28T09:39:35;8.00;;;2.97;;
6209;SDS011;3138;52.550;13.148;2023-02-28T09:42:05;5.43;;;2.90;;
6209;SDS011;3138;52.550;13.148;2023-02-28T09:44:35;7.00;;;2.53;;
6209;SDS011;3138;52.550;13.148;2023-02-28T09:47:08;5.23;;;3.30;;
6209;SDS011;3138;52.550;13.148;2023-02-28T09:49:43;8.60;;;3.27;;
6209;SDS011;3138;52.550;13.148;2023-02-28T09:52:13;9.90;;;4.93;;
6209;SDS011;3138;52.550;13.148;2023-02-28T09:54:44;18.23;;;6.67;;
6209;SDS011;3138;52.550;13.148;2023-02-28T09:57:16;9.13;;;3.80;;
6209;SDS011;3138;52.550;13.148;2023-02-28T09:59:57;15.17;;;4.50;;
6209;SDS011;3138;52.550;13.148;2023-02-28T10:02:48;10.40;;;4.13;;
6209;SDS011;3138;52.550;13.148;2023-02-28T10:05:23;10.70;;;3.97;;
6209;SDS011;3138;52.550;13.148;2023-02-28T10:08:00;5.80;;;4.10;;
6209;SDS011;3138;52.550;13.148;2023-02-28T10:10:34;22.60;;;4.53;;
6209;SDS011;3138;52.550;13.148;2023-02-28T10:13:11;7.33;;;4.30;;
6209;SDS011;3138;52.550;13.148;2023-02-28T10:15:46;8.00;;;4.17;;
6209;SDS011;3138;52.550;13.148;2023-02-28T10:18:23;8.00;;;4.27;;
6209;SDS011;3138;52.550;13.148;2023-02-28T10:20:52;7.73;;;3.53;;
6209;SDS011;3138;52.550;13.148;2023-02-28T10:23:21;8.03;;;3.83;;
6209;SDS011;3138;52.550;13.148;2023-02-28T10:25:54;11.33;;;4.40;;
6209;SDS011;3138;52.550;13.148;2023-02-28T10:28:27;7.43;;;2.77;;
6209;SDS011;3138;52.550;13.148;2023-02-28T10:30:57;4.50;;;2.53;;
6209;SDS011;3138;52.550;13.148;2023-02-28T10:33:28;6.53;;;3.50;;
6209;SDS011;3138;52.550;13.148;2023-02-28T10:35:59;6.53;;;2.87;;
6209;SDS011;3138;52.550;13.148;2023-02-28T10:38:49;2.23;;;2.10;;
6209;SDS011;3138;52.550;13.148;2023-02-28T10:41:17;4.07;;;2.70;;
6209;SDS011;3138;52.550;13.148;2023-02-28T10:43:55;6.10;;;2.50;;
6209;SDS011;3138;52.550;13.148;2023-02-28T10:46:43;5.63;;;2.60;;
6209;SDS011;3138;52.550;13.148;2023-02-28T10:49:17;4.93;;;2.40;;
6209;SDS011;3138;52.550;13.148;2023-02-28T10:51:46;9.20;;;3.50;;
6209;SDS011;3138;52.550;13.148;2023-02-28T10:54:19;8.20;;;3.17;;
6209;SDS011;3138;52.550;13.148;2023-02-28T10:59:35;6.33;;;2.60;;
6209;SDS011;3138;52.550;13.148;2023-02-28T11:02:08;6.33;;;3.23;;
6209;SDS011;3138;52.550;13.148;2023-02-28T11:04:59;4.20;;;2.50;;
6209;SDS011;3138;52.550;13.148;2023-02-28T11:07:28;3.83;;;2.83;;
6209;SDS011;3138;52.550;13.148;2023-02-28T11:09:57;4.47;;;2.80;;
6209;SDS011;3138;52.550;13.148;2023-02-28T11:12:25;3.43;;;2.70;;
6209;SDS011;3138;52.550;13.148;2023-02-28T11:14:56;5.03;;;2.63;;
6209;SDS011;3138;52.550;13.148;2023-02-28T11:17:28;4.57;;;2.70;;
6209;SDS011;3138;52.550;13.148;2023-02-28T11:19:57;10.53;;;3.93;;
6209;SDS011;3138;52.550;13.148;2023-02-28T11:22:30;15.40;;;3.00;;
6209;SDS011;3138;52.550;13.148;2023-02-28T11:25:02;6.40;;;2.90;;
6209;SDS011;3138;52.550;13.148;2023-02-28T11:27:48;4.90;;;3.20;;
6209;SDS011;3138;52.550;13.148;2023-02-28T11:30:28;5.13;;;3.07;;
6209;SDS011;3138;52.550;13.148;2023-02-28T11:32:57;5.47;;;2.87;;
6209;SDS011;3138;52.550;13.148;2023-02-28T11:35:30;5.30;;;2.73;;
6209;SDS011;3138;52.550;13.148;2023-02-28T11:38:00;3.43;;;2.57;;
6209;SDS011;3138;52.550;13.148;2023-02-28T11:40:31;11.90;;;4.23;;
6209;SDS011;3138;52.550;13.148;2023-02-28T11:43:08;17.90;;;2.37;;
6209;SDS011;3138;52.550;13.148;2023-02-28T11:45:51;3.53;;;2.37;;
6209;SDS011;3138;52.550;13.148;2023-02-28T11:48:30;4.73;;;2.77;;
6209;SDS011;3138;52.550;13.148;2023-02-28T11:51:10;4.63;;;2.23;;
6209;SDS011;3138;52.550;13.148;2023-02-28T11:56:37;4.43;;;2.63;;
6209;SDS011;3138;52.550;13.148;2023-02-28T11:59:14;2.83;;;2.30;;
6209;SDS011;3138;52.550;13.148;2023-02-28T12:02:06;2.50;;;2.27;;
6209;SDS011;3138;52.550;13.148;2023-02-28T12:04:51;5.40;;;2.90;;
6209;SDS011;3138;52.550;13.148;2023-02-28T12:07:26;5.33;;;2.50;;
6209;SDS011;3138;52.550;13.148;2023-02-28T12:10:02;4.70;;;2.60;;
6209;SDS011;3138;52.550;13.148;2023-02-28T12:12:43;3.13;;;1.90;;
6209;SDS011;3138;52.550;13.148;2023-02-28T12:15:49;2.70;;;2.30;;
6209;SDS011;3138;52.550;13.148;2023-02-28T12:18:39;2.40;;;2.20;;
6209;SDS011;3138;52.550;13.148;2023-02-28T12:21:36;3.10;;;2.57;;
6209;SDS011;3138;52.550;13.148;2023-02-28T12:24:33;6.63;;;2.77;;
6209;SDS011;3138;52.550;13.148;2023-02-28T12:27:18;4.50;;;2.50;;
6209;SDS011;3138;52.550;13.148;2023-02-28T12:30:00;3.87;;;2.63;;
6209;SDS011;3138;52.550;13.148;2023-02-28T12:32:36;4.43;;;2.20;;
6209;SDS011;3138;52.550;13.148;2023-02-28T12:35:12;4.63;;;2.87;;
6209;SDS011;3138;52.550;13.148;2023-02-28T12:37:51;8.03;;;2.20;;
6209;SDS011;3138;52.550;13.148;2023-02-28T12:40:32;8.30;;;3.20;;
6209;SDS011;3138;52.550;13.148;2023-02-28T12:43:09;10.30;;;6.40;;
6209;SDS011;3138;52.550;13.148;2023-02-28T12:45:50;3.63;;;2.90;;
6209;SDS011;3138;52.550;13.148;2023-02-28T12:48:27;3.43;;;2.33;;
6209;SDS011;3138;52.550;13.148;2023-02-28T12:51:15;2.37;;;2.10;;
6209;SDS011;3138;52.550;13.148;2023-02-28T12:53:56;4.87;;;2.50;;
6209;SDS011;3138;52.550;13.148;2023-02-28T12:56:38;3.60;;;2.90;;
6209;SDS011;3138;52.550;13.148;2023-02-28T12:59:13;3.80;;;2.53;;
6209;SDS011;3138;52.550;13.148;2023-02-28T13:04:47;2.33;;;2.20;;
6209;SDS011;3138;52.550;13.148;2023-02-28T13:07:55;3.03;;;2.73;;
6209;SDS011;3138;52.550;13.148;2023-02-28T13:10:53;4.30;;;2.37;;
6209;SDS011;3138;52.550;13.148;2023-02-28T13:13:22;5.07;;;3.23;;
6209;SDS011;3138;52.550;13.148;2023-02-28T13:15:59;3.77;;;2.67;;
6209;SDS011;3138;52.550;13.148;2023-02-28T13:18:33;6.33;;;3.10;;
6209;SDS011;3138;52.550;13.148;2023-02-28T13:21:03;2.33;;;2.20;;
6209;SDS011;3138;52.550;13.148;2023-02-28T13:23:39;13.00;;;2.90;;
6209;SDS011;3138;52.550;13.148;2023-02-28T13:26:23;5.70;;;3.67;;
6209;SDS011;3138;52.550;13.148;2023-02-28T13:29:33;8.60;;;4.00;;
6209;SDS011;3138;52.550;13.148;2023-02-28T13:35:14;4.27;;;2.17;;
6209;SDS011;3138;52.550;13.148;2023-02-28T13:38:13;4.63;;;3.50;;
6209;SDS011;3138;52.550;13.148;2023-02-28T13:40:51;3.27;;;2.80;;
6209;SDS011;3138;52.550;13.148;2023-02-28T13:43:18;8.13;;;3.63;;
6209;SDS011;3138;52.550;13.148;2023-02-28T13:46:07;5.43;;;3.73;;
6209;SDS011;3138;52.550;13.148;2023-02-28T13:48:41;6.10;;;3.10;;
6209;SDS011;3138;52.550;13.148;2023-02-28T13:54:13;4.50;;;2.97;;
6209;SDS011;3138;52.550;13.148;2023-02-28T13:56:54;5.33;;;3.93;;
6209;SDS011;3138;52.550;13.148;2023-02-28T13:59:38;4.47;;;2.80;;
6209;SDS011;3138;52.550;13.148;2023-02-28T14:02:23;4.97;;;3.57;;
6209;SDS011;3138;52.550;13.148;2023-02-28T14:05:15;7.80;;;3.80;;
6209;SDS011;3138;52.550;13.148;2023-02-28T14:07:44;10.23;;;4.00;;
6209;SDS011;3138;52.550;13.148;2023-02-28T14:10:22;4.27;;;3.63;;
6209;SDS011;3138;52.550;13.148;2023-02-28T14:12:56;5.77;;;3.47;;
6209;SDS011;3138;52.550;13.148;2023-02-28T14:15:36;4.07;;;3.23;;
6209;SDS011;3138;52.550;13.148;2023-02-28T14:18:13;5.97;;;3.67;;
6209;SDS011;3138;52.550;13.148;2023-02-28T14:20:52;6.40;;;3.87;;
6209;SDS011;3138;52.550;13.148;2023-02-28T14:23:40;4.20;;;3.33;;
6209;SDS011;3138;52.550;13.148;2023-02-28T14:26:50;5.20;;;3.70;;
6209;SDS011;3138;52.550;13.148;2023-02-28T14:29:35;4.40;;;3.60;;
6209;SDS011;3138;52.550;13.148;2023-02-28T14:32:26;6.73;;;3.97;;
6209;SDS011;3138;52.550;13.148;2023-02-28T14:35:05;4.80;;;3.40;;
6209;SDS011;3138;52.550;13.148;2023-02-28T14:37:44;3.93;;;3.30;;
6209;SDS011;3138;52.550;13.148;2023-02-28T14:40:14;12.80;;;4.33;;
6209;SDS011;3138;52.550;13.148;2023-02-28T14:42:47;4.17;;;3.30;;
6209;SDS011;3138;52.550;13.148;2023-02-28T14:45:21;6.53;;;3.60;;
6209;SDS011;3138;52.550;13.148;2023-02-28T14:47:49;6.70;;;4.37;;
6209;SDS011;3138;52.550;13.148;2023-02-28T14:50:19;4.30;;;3.57;;
6209;SDS011;3138;52.550;13.148;2023-02-28T14:52:54;6.13;;;3.97;;
6209;SDS011;3138;52.550;13.148;2023-02-28T14:55:25;4.47;;;3.60;;
6209;SDS011;3138;52.550;13.148;2023-02-28T14:58:00;8.17;;;4.10;;
6209;SDS011;3138;52.550;13.148;2023-02-28T15:00:32;4.67;;;3.57;;
6209;SDS011;3138;52.550;13.148;2023-02-28T15:03:13;6.00;;;3.27;;
6209;SDS011;3138;52.550;13.148;2023-02-28T15:05:53;4.80;;;3.53;;
6209;SDS011;3138;52.550;13.148;2023-02-28T15:08:28;5.80;;;4.03;;
6209;SDS011;3138;52.550;13.148;2023-02-28T15:11:01;13.63;;;3.83;;
6209;SDS011;3138;52.550;13.148;2023-02-28T15:13:34;4.43;;;2.93;;
6209;SDS011;3138;52.550;13.148;2023-02-28T15:16:10;6.63;;;3.37;;
6209;SDS011;3138;52.550;13.148;2023-02-28T15:18:44;5.00;;;3.63;;
6209;SDS011;3138;52.550;13.148;2023-02-28T15:21:16;4.40;;;3.10;;
6209;SDS011;3138;52.550;13.148;2023-02-28T15:23:48;6.00;;;3.63;;
6209;SDS011;3138;52.550;13.148;2023-02-28T15:26:20;8.87;;;4.07;;
6209;SDS011;3138;52.550;13.148;2023-02-28T15:28:56;6.50;;;3.20;;
6209;SDS011;3138;52.550;13.148;2023-02-28T15:31:39;4.73;;;3.07;;
6209;SDS011;3138;52.550;13.148;2023-02-28T15:34:16;3.70;;;3.30;;
6209;SDS011;3138;52.550;13.148;2023-02-28T15:36:48;5.80;;;4.27;;
6209;SDS011;3138;52.550;13.148;2023-02-28T15:39:24;4.50;;;3.40;;
6209;SDS011;3138;52.550;13.148;2023-02-28T15:42:16;4.17;;;2.90;;
6209;SDS011;3138;52.550;13.148;2023-02-28T15:45:05;6.57;;;4.67;;
6209;SDS011;3138;52.550;13.148;2023-02-28T15:47:54;6.70;;;4.10;;
6209;SDS011;3138;52.550;13.148;2023-02-28T15:50:27;4.50;;;3.20;;
6209;SDS011;3138;52.550;13.148;2023-02-28T15:52:57;6.97;;;4.23;;
6209;SDS011;3138;52.550;13.148;2023-02-28T15:55:28;10.43;;;2.87;;
6209;SDS011;3138;52.550;13.148;2023-02-28T15:58:01;7.73;;;3.37;;
6209;SDS011;3138;52.550;13.148;2023-02-28T16:00:32;6.70;;;3.50;;
6209;SDS011;3138;52.550;13.148;2023-02-28T16:08:52;11.17;;;8.50;;
6209;SDS011;3138;52.550;13.148;2023-02-28T16:11:20;5.20;;;4.03;;
6209;SDS011;3138;52.550;13.148;2023-02-28T16:13:51;4.07;;;3.13;;
6209;SDS011;3138;52.550;13.148;2023-02-28T16:16:19;12.27;;;8.37;;
6209;SDS011;3138;52.550;13.148;2023-02-28T16:18:49;18.50;;;12.47;;
6209;SDS011;3138;52.550;13.148;2023-02-28T16:21:16;7.97;;;6.00;;
6209;SDS011;3138;52.550;13.148;2023-02-28T16:23:46;6.57;;;3.77;;
6209;SDS011;3138;52.550;13.148;2023-02-28T16:26:20;4.70;;;2.73;;
6209;SDS011;3138;52.550;13.148;2023-02-28T16:28:50;6.50;;;3.53;;
6209;SDS011;3138;52.550;13.148;2023-02-28T16:31:18;4.63;;;3.30;;
6209;SDS011;3138;52.550;13.148;2023-02-28T16:33:46;7.40;;;3.93;;
6209;SDS011;3138;52.550;13.148;2023-02-28T16:36:19;5.50;;;3.17;;
6209;SDS011;3138;52.550;13.148;2023-02-28T16:38:51;6.90;;;4.87;;
6209;SDS011;3138;52.550;13.148;2023-02-28T16:41:20;9.23;;;4.77;;
6209;SDS011;3138;52.550;13.148;2023-02-28T16:43:51;6.10;;;3.73;;